This is the latest recevied weather packets stored in our database for station/object OE3TEC-15. If no packets are shown the sender has not sent any weather packets the latest 10 day(s).
| Time | Temp. | Humidity | Pressure | Rain* | Wind** | Luminosity | Snow |
|---|---|---|---|---|---|---|---|
| 1788356042 | 28.33° C | 37% | 1020.1 hPa | 0 mm | - | 254 W/m² | - |
| 1788355425 | 29.44° C | 34% | 1020.3 hPa | 0 mm | - | 384 W/m² | - |
| 1788354198 | 27.78° C | 37% | 1020.5 hPa | 0 mm | - | 339 W/m² | - |
| 1788351136 | 27.78° C | 38% | 1020.9 hPa | 0 mm | - | 657 W/m² | - |
| 1788349274 | 27.22° C | 39% | 1021.3 hPa | 0 mm | - | 570 W/m² | - |
| 1788348656 | 26.67° C | 37% | 1021.4 hPa | 0 mm | - | 634 W/m² | - |
| 1788347430 | 26.67° C | 38% | 1021.6 hPa | 0 mm | - | 578 W/m² | - |
| 1788346824 | 27.78° C | 37% | 1021.6 hPa | 0 mm | - | 650 W/m² | - |
| 1788346224 | 27.22° C | 38% | 1021.7 hPa | 0 mm | - | 641 W/m² | - |
| 1788345616 | 26.67° C | 39% | 1021.6 hPa | 0 mm | - | 626 W/m² | - |
| 1788345005 | 26.11° C | 40% | 1021.8 hPa | 0 mm | - | 609 W/m² | - |
| 1788343764 | 26.67° C | 40% | 1022.4 hPa | 0 mm | - | 620 W/m² | - |
| 1788339456 | 25° C | 41% | 1022.6 hPa | 0 mm | - | 537 W/m² | - |
| 1788337600 | 23.89° C | 47% | 1022.8 hPa | 0 mm | - | 491 W/m² | - |
| 1788336996 | 23.33° C | 47% | 1022.9 hPa | 0 mm | - | 465 W/m² | - |
| 1788336360 | 22.78° C | 50% | 1023.1 hPa | 0 mm | - | 450 W/m² | - |
| 1788335756 | 21.67° C | 54% | 1022.7 hPa | 0 mm | - | 417 W/m² | - |
| 1788335120 | 21.11° C | 54% | 1022.8 hPa | 0 mm | - | 392 W/m² | - |
| 1788333880 | 19.44° C | 60% | 1022.8 hPa | 0 mm | - | 425 W/m² | - |
| 1788332049 | 18.33° C | 62% | 1022.7 hPa | 0 mm | - | 138 W/m² | - |
| 1788331448 | 18.89° C | 64% | 1022.6 hPa | 0 mm | - | 179 W/m² | - |
| 1788330832 | 16.67° C | 72% | 1022.5 hPa | 0 mm | - | 230 W/m² | - |
| 1788328352 | 15.56° C | 77% | 1022.5 hPa | 0 mm | - | 79 W/m² | - |
| 1788327112 | 14.44° C | 80% | 1022.5 hPa | 0 mm | - | 43 W/m² | - |
| 1788326508 | 14.44° C | 80% | 1022.5 hPa | 0 mm | - | 22 W/m² | - |
* Rain latest hour (hover to see other rain measurements)
** Current wind speed in m/s (hover to see current wind gust speed)